createdAt,value
2023-03-15T00:01:16.412Z,7.20
2023-03-15T00:03:44.224Z,7.10
2023-03-15T00:06:11.901Z,7.10
2023-03-15T00:08:39.130Z,7.10
2023-03-15T00:11:06.458Z,7.10
2023-03-15T00:13:33.224Z,7.10
2023-03-15T00:16:03.247Z,7.10
2023-03-15T00:18:30.399Z,7.10
2023-03-15T00:20:57.366Z,7.20
2023-03-15T00:23:24.124Z,7.10
2023-03-15T00:25:52.706Z,7.10
2023-03-15T00:28:19.492Z,7.10
2023-03-15T00:30:46.377Z,7.10
2023-03-15T00:33:14.149Z,7.10
2023-03-15T00:35:43.247Z,7.10
2023-03-15T00:38:10.316Z,7.00
2023-03-15T00:40:38.137Z,6.90
2023-03-15T00:43:05.356Z,6.90
2023-03-15T00:45:32.550Z,6.70
2023-03-15T00:47:59.195Z,6.70
2023-03-15T00:50:26.494Z,6.60
2023-03-15T00:52:53.305Z,6.50
2023-03-15T00:55:21.531Z,6.50
2023-03-15T00:57:48.799Z,6.40
2023-03-15T01:00:24.505Z,6.40
2023-03-15T01:02:54.603Z,6.30
2023-03-15T01:05:22.389Z,6.20
2023-03-15T01:07:49.243Z,6.20
2023-03-15T01:10:16.833Z,6.00
2023-03-15T01:12:43.522Z,5.90
2023-03-15T01:15:13.894Z,5.80
2023-03-15T01:17:40.823Z,5.70
2023-03-15T01:20:08.672Z,5.60
2023-03-15T01:22:35.308Z,5.40
2023-03-15T01:25:01.995Z,5.40
2023-03-15T01:27:28.622Z,5.30
2023-03-15T01:29:55.434Z,5.30
2023-03-15T01:32:22.097Z,5.30
2023-03-15T01:34:48.908Z,5.30
2023-03-15T01:37:15.790Z,5.20
2023-03-15T01:39:42.776Z,5.20
2023-03-15T01:42:10.464Z,5.10
2023-03-15T01:44:57.154Z,5.10
2023-03-15T01:47:26.929Z,5.10
2023-03-15T01:50:06.191Z,5.10
2023-03-15T01:52:37.456Z,5.10
2023-03-15T01:55:15.236Z,5.10
2023-03-15T01:57:56.046Z,5.00
2023-03-15T02:00:22.917Z,5.00
2023-03-15T02:02:49.490Z,4.90
2023-03-15T02:05:21.612Z,4.90
2023-03-15T02:07:54.451Z,4.90
2023-03-15T02:10:37.762Z,4.90
2023-03-15T02:13:05.111Z,5.00
2023-03-15T02:15:32.209Z,5.00
2023-03-15T02:17:58.958Z,5.00
2023-03-15T02:20:38.514Z,5.00
2023-03-15T02:23:12.648Z,5.00
2023-03-15T02:26:06.053Z,5.10
2023-03-15T02:28:33.045Z,5.00
2023-03-15T02:31:00.113Z,5.00
2023-03-15T02:33:28.718Z,4.90
2023-03-15T02:36:05.935Z,4.90
2023-03-15T02:38:32.599Z,4.90
2023-03-15T02:40:59.625Z,4.80
2023-03-15T02:43:29.520Z,4.80
2023-03-15T02:45:56.744Z,4.70
2023-03-15T02:48:23.406Z,4.70
2023-03-15T02:50:50.200Z,4.60
2023-03-15T02:53:16.834Z,4.60
2023-03-15T02:55:43.566Z,4.60
2023-03-15T02:58:10.421Z,4.60
2023-03-15T03:00:37.537Z,4.60
2023-03-15T03:03:04.276Z,4.60
2023-03-15T03:05:31.334Z,4.50
2023-03-15T03:07:58.666Z,4.50
2023-03-15T03:10:25.370Z,4.50
2023-03-15T03:12:53.619Z,4.40
2023-03-15T03:15:21.402Z,4.30
2023-03-15T03:17:48.449Z,4.30
2023-03-15T03:20:15.574Z,4.30
2023-03-15T03:22:44.773Z,4.30
2023-03-15T03:25:12.255Z,4.20
2023-03-15T03:27:40.638Z,4.20
2023-03-15T03:30:10.569Z,4.20
2023-03-15T03:32:37.360Z,4.20
2023-03-15T03:35:04.177Z,4.20
2023-03-15T03:37:30.929Z,4.10
2023-03-15T03:39:58.101Z,4.10
2023-03-15T03:42:24.999Z,4.00
2023-03-15T03:44:51.713Z,4.00
2023-03-15T03:47:18.399Z,3.90
2023-03-15T03:49:45.029Z,3.90
2023-03-15T03:52:11.813Z,3.80
2023-03-15T03:54:38.422Z,3.70
2023-03-15T03:57:05.381Z,3.70
2023-03-15T03:59:32.106Z,3.70
2023-03-15T04:01:58.707Z,3.70
2023-03-15T04:04:26.391Z,3.70
2023-03-15T04:06:54.501Z,3.70
2023-03-15T04:09:22.021Z,3.80
2023-03-15T04:11:48.704Z,3.70
2023-03-15T04:14:15.716Z,3.70
2023-03-15T04:16:42.639Z,3.70
2023-03-15T04:19:09.343Z,3.60
2023-03-15T04:21:36.990Z,3.70
2023-03-15T04:24:03.902Z,3.60
2023-03-15T04:26:30.899Z,3.60
2023-03-15T04:28:58.856Z,3.60
2023-03-15T04:31:28.969Z,3.50
2023-03-15T04:33:56.099Z,3.40
2023-03-15T04:36:23.180Z,3.40
2023-03-15T04:38:50.271Z,3.40
2023-03-15T04:41:18.626Z,3.40
2023-03-15T04:43:45.691Z,3.40
2023-03-15T04:46:12.531Z,3.40
2023-03-15T04:48:39.238Z,3.40
2023-03-15T04:51:05.993Z,3.40
2023-03-15T04:53:32.980Z,3.40
2023-03-15T04:55:59.731Z,3.40
2023-03-15T04:58:26.404Z,3.30
2023-03-15T05:00:54.131Z,3.30
2023-03-15T05:03:21.048Z,3.30
2023-03-15T05:05:47.870Z,3.30
2023-03-15T05:08:14.662Z,3.30
2023-03-15T05:10:41.276Z,3.30
2023-03-15T05:13:07.884Z,3.20
2023-03-15T05:15:34.499Z,3.20
2023-03-15T05:18:01.209Z,3.20
2023-03-15T05:20:27.848Z,3.20
2023-03-15T05:22:54.522Z,3.20
2023-03-15T05:25:21.243Z,3.20
2023-03-15T05:27:47.898Z,3.20
2023-03-15T05:30:16.194Z,3.10
2023-03-15T05:32:44.834Z,3.10
2023-03-15T05:35:13.688Z,3.10
2023-03-15T05:37:40.514Z,3.10
2023-03-15T05:40:08.259Z,3.10
2023-03-15T05:42:35.452Z,3.10
2023-03-15T05:45:02.260Z,3.10
2023-03-15T05:47:29.071Z,3.00
2023-03-15T05:49:55.699Z,3.00
2023-03-15T05:52:22.413Z,3.00
2023-03-15T05:54:49.036Z,3.00
2023-03-15T05:57:15.662Z,3.00
2023-03-15T05:59:42.315Z,2.90
2023-03-15T06:02:09.223Z,3.00
2023-03-15T06:04:37.843Z,3.00
2023-03-15T06:07:04.604Z,2.90
2023-03-15T06:09:31.456Z,2.90
2023-03-15T06:11:59.043Z,2.90
2023-03-15T06:14:26.948Z,2.90
2023-03-15T06:16:53.685Z,2.90
2023-03-15T06:19:21.432Z,2.90
2023-03-15T06:21:48.314Z,3.00
2023-03-15T06:24:15.342Z,3.00
2023-03-15T06:26:42.014Z,3.00
2023-03-15T06:29:08.914Z,3.00
2023-03-15T06:31:35.561Z,3.10
2023-03-15T06:34:02.257Z,3.00
2023-03-15T06:36:28.886Z,3.00
2023-03-15T06:38:55.519Z,3.00
2023-03-15T06:41:22.149Z,3.10
2023-03-15T06:43:48.765Z,3.10
2023-03-15T06:46:15.860Z,3.10
2023-03-15T06:48:42.598Z,3.20
2023-03-15T06:51:09.318Z,3.20
2023-03-15T06:53:35.988Z,3.20
2023-03-15T06:56:02.700Z,3.20
2023-03-15T06:58:29.325Z,3.30
2023-03-15T07:00:56.272Z,3.30
2023-03-15T07:03:23.647Z,3.30
2023-03-15T07:05:52.661Z,3.30
2023-03-15T07:08:20.123Z,3.30
2023-03-15T07:10:48.352Z,3.40
2023-03-15T07:13:15.306Z,3.40
2023-03-15T07:15:42.379Z,3.50
2023-03-15T07:18:09.072Z,3.60
2023-03-15T07:20:37.683Z,3.60
2023-03-15T07:23:05.039Z,3.70
2023-03-15T07:25:31.676Z,3.70
2023-03-15T07:27:58.297Z,3.70
2023-03-15T07:30:25.069Z,3.70
2023-03-15T07:32:52.033Z,3.80
2023-03-15T07:35:18.775Z,3.80
2023-03-15T07:37:45.985Z,3.90
2023-03-15T07:40:13.831Z,3.90
2023-03-15T07:42:40.636Z,3.90
2023-03-15T07:45:08.025Z,4.00
2023-03-15T07:47:35.171Z,4.00
2023-03-15T07:50:02.227Z,4.10
2023-03-15T07:52:28.857Z,4.10
2023-03-15T07:54:55.499Z,4.10
2023-03-15T07:57:22.178Z,4.20
2023-03-15T07:59:49.148Z,4.20
2023-03-15T08:02:15.862Z,4.20
2023-03-15T08:04:42.540Z,4.30
2023-03-15T08:07:09.147Z,4.30
2023-03-15T08:09:35.769Z,4.40
2023-03-15T08:12:02.824Z,4.40
2023-03-15T08:14:31.596Z,4.40
2023-03-15T08:16:58.269Z,4.40
2023-03-15T08:19:25.142Z,4.50
2023-03-15T08:21:53.997Z,4.50
2023-03-15T08:24:21.643Z,4.60
2023-03-15T08:26:48.952Z,4.60
2023-03-15T08:29:15.971Z,4.70
2023-03-15T08:31:42.820Z,4.70
2023-03-15T08:34:09.700Z,4.70
2023-03-15T08:36:36.361Z,4.80
2023-03-15T08:39:05.498Z,4.90
2023-03-15T08:41:32.249Z,4.90
2023-03-15T08:43:58.906Z,4.90
2023-03-15T08:46:26.326Z,5.00
2023-03-15T08:48:53.211Z,5.00
2023-03-15T08:51:21.671Z,5.00
2023-03-15T08:53:48.344Z,5.10
2023-03-15T08:56:15.543Z,5.10
2023-03-15T08:58:42.144Z,5.20
2023-03-15T09:01:12.000Z,5.20
2023-03-15T09:03:38.845Z,5.30
2023-03-15T09:06:06.142Z,5.30
2023-03-15T09:08:33.376Z,5.30
2023-03-15T09:11:01.618Z,5.40
2023-03-15T09:13:28.973Z,5.40
2023-03-15T09:15:56.931Z,5.50
2023-03-15T09:18:24.145Z,5.50
2023-03-15T09:20:50.786Z,5.50
2023-03-15T09:23:17.450Z,5.60
2023-03-15T09:25:44.065Z,5.60
2023-03-15T09:28:11.658Z,5.60
2023-03-15T09:30:39.716Z,5.70
2023-03-15T09:33:07.458Z,5.70
2023-03-15T09:35:34.140Z,5.80
2023-03-15T09:38:00.864Z,5.80
2023-03-15T09:40:30.894Z,5.90
2023-03-15T09:43:04.174Z,5.90
2023-03-15T09:45:46.331Z,5.90
2023-03-15T09:48:36.048Z,6.00
2023-03-15T09:51:09.364Z,6.00
2023-03-15T09:54:00.751Z,6.10
2023-03-15T09:56:33.499Z,6.10
2023-03-15T09:59:04.147Z,6.10
2023-03-15T10:01:41.821Z,6.20
2023-03-15T10:04:23.484Z,6.20
2023-03-15T10:06:55.388Z,6.30
2023-03-15T10:09:24.960Z,6.30
2023-03-15T10:12:03.473Z,6.40
2023-03-15T10:14:49.922Z,6.40
2023-03-15T10:17:29.519Z,6.50
2023-03-15T10:20:06.207Z,6.50
2023-03-15T10:23:02.106Z,6.60
2023-03-15T10:25:33.176Z,6.60
2023-03-15T10:28:13.672Z,6.70
2023-03-15T10:30:46.817Z,6.80
2023-03-15T10:33:37.060Z,6.90
2023-03-15T10:36:16.363Z,6.90
2023-03-15T10:38:43.965Z,7.00
2023-03-15T10:41:17.824Z,7.00
2023-03-15T10:44:07.931Z,7.00
2023-03-15T10:46:35.518Z,6.90
2023-03-15T10:49:17.067Z,7.00
2023-03-15T10:51:48.595Z,7.00
2023-03-15T10:54:16.753Z,7.00
2023-03-15T10:56:52.504Z,7.00
2023-03-15T10:59:24.610Z,7.10
2023-03-15T11:01:53.855Z,7.00
2023-03-15T11:04:22.081Z,7.10
2023-03-15T11:06:57.610Z,7.10
2023-03-15T11:09:26.596Z,7.10
2023-03-15T11:11:59.982Z,7.20
2023-03-15T11:14:48.209Z,7.20
2023-03-15T11:17:31.819Z,7.30
2023-03-15T11:20:10.743Z,7.40
2023-03-15T11:22:37.357Z,7.40
2023-03-15T11:25:04.194Z,7.50
2023-03-15T11:27:31.831Z,7.60
2023-03-15T11:30:00.186Z,7.70
2023-03-15T11:32:29.978Z,7.70
2023-03-15T11:35:14.242Z,7.70
2023-03-15T11:38:09.664Z,7.70
2023-03-15T11:40:45.460Z,7.70
2023-03-15T11:43:25.734Z,7.70
2023-03-15T11:45:58.175Z,7.70
2023-03-15T11:48:53.060Z,7.70
2023-03-15T11:51:19.793Z,7.80
2023-03-15T11:54:01.672Z,7.80
2023-03-15T11:56:44.514Z,7.80
2023-03-15T11:59:15.391Z,7.90
2023-03-15T12:01:49.628Z,8.00
2023-03-15T12:04:25.552Z,8.10
2023-03-15T12:06:56.950Z,8.30
2023-03-15T12:09:32.667Z,8.40
2023-03-15T12:12:21.826Z,8.40
2023-03-15T12:14:48.554Z,8.50
2023-03-15T12:17:24.035Z,8.50
2023-03-15T12:20:12.705Z,8.50
2023-03-15T12:23:13.233Z,8.60
2023-03-15T12:25:55.557Z,8.60
2023-03-15T12:28:35.958Z,8.70
2023-03-15T12:31:04.160Z,8.80
2023-03-15T12:33:32.756Z,8.80
2023-03-15T12:36:02.769Z,8.90
2023-03-15T12:38:41.731Z,8.90
2023-03-15T12:41:29.393Z,9.00
2023-03-15T12:44:21.918Z,9.10
2023-03-15T12:46:48.516Z,9.20
2023-03-15T12:49:24.015Z,9.30
2023-03-15T12:51:58.178Z,9.40
2023-03-15T12:54:34.340Z,9.50
2023-03-15T12:57:04.148Z,9.60
2023-03-15T12:59:41.226Z,9.70
2023-03-15T13:02:39.519Z,9.80
2023-03-15T13:05:20.110Z,9.80
2023-03-15T13:07:57.149Z,9.90
2023-03-15T13:10:39.458Z,9.90
2023-03-15T13:13:17.524Z,9.90
2023-03-15T13:15:56.353Z,9.90
2023-03-15T13:18:24.280Z,9.90
2023-03-15T13:21:13.827Z,9.90
2023-03-15T13:23:46.593Z,9.80
2023-03-15T13:26:38.958Z,9.90
2023-03-15T13:29:14.994Z,9.80
2023-03-15T13:31:41.719Z,9.80
2023-03-15T13:34:19.223Z,9.70
2023-03-15T13:36:49.182Z,9.70
2023-03-15T13:39:24.252Z,9.70
2023-03-15T13:41:58.523Z,9.70
2023-03-15T13:44:25.705Z,9.80
2023-03-15T13:46:53.717Z,9.80
2023-03-15T13:49:21.889Z,9.80
2023-03-15T13:51:49.981Z,9.80
2023-03-15T13:54:27.389Z,9.90
2023-03-15T13:57:11.714Z,9.90
2023-03-15T13:59:52.623Z,10.00
2023-03-15T14:02:46.139Z,10.00
2023-03-15T14:05:27.223Z,10.10
2023-03-15T14:08:06.056Z,10.10
2023-03-15T14:10:40.159Z,10.10
2023-03-15T14:13:21.113Z,10.10
2023-03-15T14:15:48.361Z,10.10
2023-03-15T14:18:24.537Z,10.10
2023-03-15T14:21:04.829Z,10.10
2023-03-15T14:23:32.358Z,10.20
2023-03-15T14:26:17.416Z,10.20
2023-03-15T14:28:53.562Z,10.20
2023-03-15T14:31:23.954Z,10.30
2023-03-15T14:34:07.335Z,10.30
2023-03-15T14:36:44.392Z,10.30
2023-03-15T14:39:19.857Z,10.40
2023-03-15T14:41:46.600Z,10.40
2023-03-15T14:44:13.213Z,10.50
2023-03-15T14:46:39.803Z,10.60
2023-03-15T14:49:06.559Z,10.70
2023-03-15T14:51:33.346Z,10.80
2023-03-15T14:54:00.998Z,10.80
2023-03-15T14:56:27.691Z,10.90
2023-03-15T14:58:54.307Z,10.80
2023-03-15T15:01:25.275Z,10.80
2023-03-15T15:04:01.974Z,10.80
2023-03-15T15:06:31.913Z,10.80
2023-03-15T15:08:59.962Z,10.80
2023-03-15T15:11:27.168Z,10.80
2023-03-15T15:13:54.133Z,10.80
2023-03-15T15:16:20.805Z,10.80
2023-03-15T15:18:47.636Z,10.80
2023-03-15T15:21:25.808Z,10.80
2023-03-15T15:23:58.421Z,10.80
2023-03-15T15:26:28.363Z,10.90
2023-03-15T15:28:56.428Z,10.90
2023-03-15T15:31:25.623Z,10.80
2023-03-15T15:33:54.139Z,10.80
2023-03-15T15:36:33.462Z,10.80
2023-03-15T15:39:07.246Z,10.70
2023-03-15T15:41:34.336Z,10.60
2023-03-15T15:44:01.482Z,10.60
2023-03-15T15:46:28.590Z,10.60
2023-03-15T15:48:55.372Z,10.50
2023-03-15T15:51:27.636Z,10.50
2023-03-15T15:53:57.001Z,10.40
2023-03-15T15:56:32.057Z,10.40
2023-03-15T15:58:59.871Z,10.30
2023-03-15T16:01:26.519Z,10.20
2023-03-15T16:03:53.206Z,10.20
2023-03-15T16:06:21.273Z,10.10
2023-03-15T16:08:50.776Z,9.90
2023-03-15T16:11:18.309Z,9.90
2023-03-15T16:13:45.977Z,9.80
2023-03-15T16:16:16.844Z,9.80
2023-03-15T16:18:44.330Z,9.70
2023-03-15T16:21:34.331Z,9.60
2023-03-15T16:24:04.852Z,9.60
2023-03-15T16:26:31.806Z,9.50
2023-03-15T16:28:58.536Z,9.50
2023-03-15T16:31:25.233Z,9.50
2023-03-15T16:33:51.936Z,9.40
2023-03-15T16:36:21.348Z,9.30
2023-03-15T16:38:48.637Z,9.30
2023-03-15T16:41:17.088Z,9.30
2023-03-15T16:43:44.174Z,9.30
2023-03-15T16:46:15.949Z,9.30
2023-03-15T16:48:43.072Z,9.30
2023-03-15T16:51:12.893Z,9.30
2023-03-15T16:53:44.535Z,9.30
2023-03-15T16:56:14.124Z,9.30
2023-03-15T16:58:42.547Z,9.20
2023-03-15T17:01:10.611Z,9.20
2023-03-15T17:03:37.354Z,9.20
2023-03-15T17:06:04.142Z,9.20
2023-03-15T17:08:30.899Z,9.20
2023-03-15T17:10:57.529Z,9.20
2023-03-15T17:13:28.516Z,9.20
2023-03-15T17:15:55.132Z,9.20
2023-03-15T17:18:23.877Z,9.20
2023-03-15T17:20:50.652Z,9.20
2023-03-15T17:23:18.250Z,9.20
2023-03-15T17:25:44.983Z,9.20
2023-03-15T17:28:11.638Z,9.20
2023-03-15T17:30:38.629Z,9.20
2023-03-15T17:33:05.783Z,9.10
2023-03-15T17:35:39.672Z,9.10
2023-03-15T17:38:12.960Z,9.10
2023-03-15T17:40:39.674Z,9.10
2023-03-15T17:43:06.724Z,9.00
2023-03-15T17:45:34.441Z,9.00
2023-03-15T17:48:02.274Z,9.00
2023-03-15T17:50:31.977Z,9.00
2023-03-15T17:53:02.282Z,8.90
2023-03-15T17:55:30.637Z,8.90
2023-03-15T17:57:57.274Z,8.80
2023-03-15T18:00:25.005Z,8.70
2023-03-15T18:02:56.411Z,8.60
2023-03-15T18:05:28.993Z,8.50
2023-03-15T18:07:58.897Z,8.40
2023-03-15T18:10:32.734Z,8.30
2023-03-15T18:12:59.699Z,8.30
2023-03-15T18:15:26.324Z,8.30
2023-03-15T18:17:52.962Z,8.20
2023-03-15T18:20:22.180Z,8.20
2023-03-15T18:22:48.904Z,8.20
2023-03-15T18:25:27.600Z,8.10
2023-03-15T18:27:54.862Z,8.00
2023-03-15T18:30:24.382Z,8.00
2023-03-15T18:32:51.902Z,8.00
2023-03-15T18:35:28.612Z,8.00
2023-03-15T18:37:57.368Z,7.90
2023-03-15T18:40:27.024Z,7.90
2023-03-15T18:42:54.958Z,7.90
2023-03-15T18:45:24.433Z,8.00
2023-03-15T18:47:51.720Z,7.90
2023-03-15T18:50:19.520Z,7.90
2023-03-15T18:52:46.362Z,7.80
2023-03-15T18:55:15.178Z,7.80
2023-03-15T18:57:42.864Z,7.80
2023-03-15T19:00:14.977Z,7.70
2023-03-15T19:02:43.023Z,7.70
2023-03-15T19:05:11.740Z,7.60
2023-03-15T19:07:39.491Z,7.60
2023-03-15T19:10:08.202Z,7.50
2023-03-15T19:12:35.680Z,7.50
2023-03-15T19:15:02.586Z,7.50
2023-03-15T19:17:29.222Z,7.50
2023-03-15T19:19:55.850Z,7.40
2023-03-15T19:22:22.580Z,7.40
2023-03-15T19:24:49.225Z,7.30
2023-03-15T19:27:15.862Z,7.30
2023-03-15T19:29:42.745Z,7.20
2023-03-15T19:32:09.478Z,7.10
2023-03-15T19:34:36.120Z,7.10
2023-03-15T19:37:02.873Z,7.10
2023-03-15T19:39:29.486Z,7.00
2023-03-15T19:41:56.144Z,7.00
2023-03-15T19:44:22.766Z,6.90
2023-03-15T19:46:49.952Z,6.90
2023-03-15T19:49:16.667Z,6.90
2023-03-15T19:51:43.360Z,6.80
2023-03-15T19:54:10.430Z,6.70
2023-03-15T19:56:37.247Z,6.70
2023-03-15T19:59:04.464Z,6.60
2023-03-15T20:01:32.398Z,6.60
2023-03-15T20:03:59.453Z,6.50
2023-03-15T20:06:26.178Z,6.50
2023-03-15T20:08:52.849Z,6.50
2023-03-15T20:11:25.155Z,6.40
2023-03-15T20:13:54.780Z,6.30
2023-03-15T20:16:22.717Z,6.20
2023-03-15T20:18:55.192Z,6.20
2023-03-15T20:21:21.962Z,6.10
2023-03-15T20:23:49.201Z,6.10
2023-03-15T20:26:17.738Z,6.10
2023-03-15T20:28:47.015Z,6.00
2023-03-15T20:31:18.514Z,5.90
2023-03-15T20:33:48.813Z,5.90
2023-03-15T20:36:16.300Z,5.90
2023-03-15T20:38:43.181Z,5.90
2023-03-15T20:41:13.705Z,5.90
2023-03-15T20:43:41.245Z,5.90
2023-03-15T20:46:09.726Z,5.90
2023-03-15T20:48:36.865Z,5.90
2023-03-15T20:51:04.428Z,5.80
2023-03-15T20:53:33.236Z,5.80
2023-03-15T20:56:00.817Z,5.80
2023-03-15T20:58:27.641Z,5.80
2023-03-15T21:01:09.152Z,5.70
2023-03-15T21:03:36.575Z,5.70
2023-03-15T21:06:04.963Z,5.60
2023-03-15T21:08:33.140Z,5.60
2023-03-15T21:11:00.455Z,5.60
2023-03-15T21:13:27.437Z,5.60
2023-03-15T21:15:54.208Z,5.60
2023-03-15T21:18:22.749Z,5.60
2023-03-15T21:21:00.962Z,5.60
2023-03-15T21:23:31.163Z,5.50
2023-03-15T21:25:58.488Z,5.50
2023-03-15T21:28:25.257Z,5.50
2023-03-15T21:30:53.042Z,5.50
2023-03-15T21:33:21.306Z,5.40
2023-03-15T21:35:48.301Z,5.40
2023-03-15T21:38:15.229Z,5.40
2023-03-15T21:40:46.775Z,5.30
2023-03-15T21:43:13.884Z,5.30
2023-03-15T21:45:41.991Z,5.30
2023-03-15T21:48:08.827Z,5.30
2023-03-15T21:50:36.460Z,5.30
2023-03-15T21:53:03.703Z,5.30
2023-03-15T21:55:33.454Z,5.30
2023-03-15T21:58:04.746Z,5.20
2023-03-15T22:00:32.492Z,5.20
2023-03-15T22:02:59.179Z,5.20
2023-03-15T22:05:25.808Z,5.20
2023-03-15T22:07:52.908Z,5.20
2023-03-15T22:10:19.810Z,5.20
2023-03-15T22:12:46.617Z,5.20
2023-03-15T22:15:15.316Z,5.10
2023-03-15T22:17:41.971Z,5.10
2023-03-15T22:20:16.614Z,5.10
2023-03-15T22:22:47.546Z,5.10
2023-03-15T22:25:14.726Z,5.00
2023-03-15T22:27:41.912Z,5.00
2023-03-15T22:30:13.590Z,4.90
2023-03-15T22:32:44.546Z,4.90
2023-03-15T22:35:13.014Z,4.90
2023-03-15T22:37:39.685Z,4.90
2023-03-15T22:40:07.204Z,4.90
2023-03-15T22:42:34.012Z,4.90
2023-03-15T22:45:00.785Z,4.80
2023-03-15T22:47:27.444Z,4.80
2023-03-15T22:49:55.417Z,4.80
2023-03-15T22:52:22.071Z,4.80
2023-03-15T22:54:48.753Z,4.70
2023-03-15T22:57:15.367Z,4.70
2023-03-15T22:59:42.039Z,4.70
2023-03-15T23:02:08.976Z,4.70
2023-03-15T23:04:35.670Z,4.60
2023-03-15T23:07:02.356Z,4.60
2023-03-15T23:09:29.214Z,4.60
2023-03-15T23:11:55.944Z,4.60
2023-03-15T23:14:22.600Z,4.60
2023-03-15T23:16:49.492Z,4.50
2023-03-15T23:19:16.164Z,4.50
2023-03-15T23:21:42.855Z,4.50
2023-03-15T23:24:09.574Z,4.40
2023-03-15T23:26:37.205Z,4.40
2023-03-15T23:29:10.733Z,4.40
2023-03-15T23:31:42.020Z,4.40
2023-03-15T23:34:09.142Z,4.30
2023-03-15T23:36:35.975Z,4.30
2023-03-15T23:39:02.723Z,4.30
2023-03-15T23:41:29.445Z,4.20
2023-03-15T23:43:56.425Z,4.20
2023-03-15T23:46:26.179Z,4.20
2023-03-15T23:48:53.662Z,4.10
2023-03-15T23:51:22.094Z,4.10
2023-03-15T23:53:48.785Z,4.10
2023-03-15T23:56:15.530Z,4.10
2023-03-15T23:58:42.232Z,4.00
